Time;durP1;ratioP1;P1;durP2;ratioP2;P2;SDS_P1;SDS_P2;PMS_P1;PMS_P2;Temp;Humidity;BMP_temperature;BMP_pressure;BME280_temperature;BME280_humidity;BME280_pressure;Samples;Min_cycle;Max_cycle;Signal;HPM_P1;HPM_P2
2023/04/03 00:01:03;;;;;;;6.93;2.03;;;3.40;99.90;;;;;;4936028;29;20837;-59
2023/04/03 00:03:31;;;;;;;4.43;1.70;;;3.40;99.90;;;;;;4921272;29;20840;-60
2023/04/03 00:05:59;;;;;;;6.30;2.20;;;3.40;99.90;;;;;;4917573;29;20478;-59
2023/04/03 00:08:27;;;;;;;2.97;1.73;;;3.40;99.90;;;;;;4917401;29;20802;-58
2023/04/03 00:10:55;;;;;;;6.10;1.97;;;3.40;99.90;;;;;;4917417;29;20495;-59
2023/04/03 00:13:24;;;;;;;4.73;1.60;;;3.30;99.90;;;;;;4919624;29;20499;-58
2023/04/03 00:15:54;;;;;;;4.23;1.83;;;3.30;99.90;;;;;;4917750;29;20963;-59
2023/04/03 00:18:23;;;;;;;4.33;2.13;;;3.20;99.90;;;;;;4917233;29;20976;-59
2023/04/03 00:20:51;;;;;;;4.23;1.60;;;3.10;99.90;;;;;;4917313;29;21049;-60
2023/04/03 00:23:19;;;;;;;5.53;2.00;;;3.00;99.90;;;;;;4919727;29;20902;-59
2023/04/03 00:25:47;;;;;;;5.10;1.80;;;2.80;99.90;;;;;;4924883;29;20998;-58
2023/04/03 00:28:15;;;;;;;6.60;2.00;;;2.80;99.90;;;;;;4917228;29;20479;-58
2023/04/03 00:30:43;;;;;;;4.60;2.00;;;2.80;99.90;;;;;;4932692;29;20468;-59
2023/04/03 00:33:13;;;;;;;6.40;1.90;;;2.90;99.90;;;;;;4923565;29;20841;-59
2023/04/03 00:35:41;;;;;;;6.93;2.37;;;2.80;99.90;;;;;;4916727;29;20478;-59
2023/04/03 00:38:10;;;;;;;4.93;1.50;;;2.90;99.90;;;;;;4915676;29;21058;-59
2023/04/03 00:40:42;;;;;;;9.63;1.97;;;2.90;99.90;;;;;;4916708;29;20482;-60
2023/04/03 00:43:14;;;;;;;7.73;1.97;;;2.80;99.90;;;;;;4914883;29;20835;-59
2023/04/03 00:45:44;;;;;;;5.17;2.10;;;2.90;99.90;;;;;;4927883;29;20562;-59
2023/04/03 00:48:17;;;;;;;4.33;1.77;;;2.90;99.90;;;;;;4934405;29;20473;-58
2023/04/03 00:50:46;;;;;;;4.10;1.73;;;2.90;99.90;;;;;;4916407;29;20495;-59
2023/04/03 00:53:20;;;;;;;4.27;1.70;;;2.90;99.90;;;;;;4919065;29;20471;-59
2023/04/03 00:55:49;;;;;;;4.10;1.60;;;2.80;99.90;;;;;;4924205;29;20468;-59
2023/04/03 00:58:20;;;;;;;4.40;1.90;;;2.90;99.90;;;;;;4915284;29;20570;-59
2023/04/03 01:00:56;;;;;;;6.30;1.87;;;2.70;99.90;;;;;;4932861;29;20492;-59
2023/04/03 01:03:26;;;;;;;6.00;1.97;;;2.70;99.90;;;;;;4920151;29;20490;-59
2023/04/03 01:05:55;;;;;;;4.77;2.10;;;2.70;99.90;;;;;;4931224;29;20483;-59
2023/04/03 01:08:23;;;;;;;6.13;1.93;;;2.70;99.90;;;;;;4934149;29;20470;-59
2023/04/03 01:10:51;;;;;;;5.53;2.70;;;2.60;99.90;;;;;;4934237;29;20843;-60
2023/04/03 01:13:25;;;;;;;3.60;1.63;;;2.60;99.90;;;;;;4934347;29;20987;-59
2023/04/03 01:15:53;;;;;;;5.43;1.77;;;2.60;99.90;;;;;;4935292;29;20581;-59
2023/04/03 01:18:23;;;;;;;5.47;2.07;;;2.50;99.90;;;;;;4950037;29;20487;-59
2023/04/03 01:21:24;;;;;;;4.23;1.90;;;2.60;99.90;;;;;;4934105;29;20465;-60
2023/04/03 01:24:12;;;;;;;10.57;2.17;;;2.60;99.90;;;;;;4922722;29;20575;-59
2023/04/03 01:26:40;;;;;;;5.30;1.87;;;2.50;99.90;;;;;;4919083;29;20462;-59
2023/04/03 01:29:08;;;;;;;3.73;1.50;;;2.60;99.90;;;;;;4918957;29;20494;-59
2023/04/03 01:31:51;;;;;;;4.53;1.60;;;2.60;99.90;;;;;;4934495;29;20484;-59
2023/04/03 01:34:20;;;;;;;4.97;1.63;;;2.50;99.90;;;;;;4916271;29;20834;-59
2023/04/03 01:36:50;;;;;;;5.90;2.20;;;2.40;99.90;;;;;;4915159;29;20489;-59
2023/04/03 01:39:18;;;;;;;5.63;1.97;;;2.30;99.90;;;;;;4914938;29;20582;-58
2023/04/03 01:41:47;;;;;;;9.33;2.37;;;2.20;99.90;;;;;;4914740;29;20508;-59
2023/04/03 01:44:22;;;;;;;4.27;1.80;;;2.30;99.90;;;;;;4914994;29;20475;-59
2023/04/03 01:46:51;;;;;;;5.23;2.07;;;2.50;99.90;;;;;;4916101;29;20809;-57
2023/04/03 01:49:21;;;;;;;7.53;2.17;;;2.80;99.90;;;;;;4914908;29;20483;-59
2023/04/03 01:51:49;;;;;;;6.53;1.80;;;2.60;99.90;;;;;;4915941;29;20489;-59
2023/04/03 01:54:17;;;;;;;3.37;2.17;;;2.40;99.90;;;;;;4927001;29;20465;-59
2023/04/03 01:56:45;;;;;;;5.97;2.30;;;2.30;99.90;;;;;;4934998;29;20472;-59
2023/04/03 01:59:16;;;;;;;4.47;2.27;;;2.20;99.90;;;;;;4950278;28;21096;-59
2023/04/03 02:01:45;;;;;;;3.17;1.93;;;2.20;99.90;;;;;;4920602;29;20979;-59
2023/04/03 02:04:15;;;;;;;6.77;2.40;;;2.10;99.90;;;;;;4953338;29;20471;-58
2023/04/03 02:06:43;;;;;;;5.13;1.83;;;2.10;99.90;;;;;;4953121;29;20882;-59
2023/04/03 02:09:11;;;;;;;5.10;1.87;;;2.20;99.90;;;;;;4922611;29;20981;-59
2023/04/03 02:11:39;;;;;;;6.43;2.40;;;2.10;99.90;;;;;;4927211;29;20495;-60
2023/04/03 02:14:08;;;;;;;5.00;1.90;;;2.20;99.90;;;;;;4937439;29;20492;-60
2023/04/03 02:16:36;;;;;;;5.03;2.50;;;2.50;99.90;;;;;;4952833;29;20480;-58
2023/04/03 02:19:04;;;;;;;5.00;2.17;;;2.60;99.90;;;;;;4937054;29;21005;-59
2023/04/03 02:21:34;;;;;;;4.73;2.13;;;2.60;99.90;;;;;;4938036;29;20452;-60
2023/04/03 02:24:02;;;;;;;4.13;2.00;;;2.70;99.90;;;;;;4934856;29;20992;-60
2023/04/03 02:26:30;;;;;;;6.60;2.10;;;2.90;99.90;;;;;;4933611;29;20473;-59
2023/04/03 02:28:58;;;;;;;5.53;2.10;;;2.90;99.90;;;;;;4937978;29;20466;-60
2023/04/03 02:31:26;;;;;;;3.67;2.10;;;2.80;99.90;;;;;;4936006;29;20840;-58
2023/04/03 02:33:55;;;;;;;6.37;2.73;;;2.90;99.90;;;;;;4918737;29;20488;-59
2023/04/03 02:36:23;;;;;;;5.03;2.37;;;2.80;99.90;;;;;;4917993;29;20503;-58
2023/04/03 02:38:57;;;;;;;5.17;2.30;;;2.40;99.90;;;;;;4917615;29;20483;-60
2023/04/03 02:41:31;;;;;;;5.80;2.30;;;2.20;99.90;;;;;;4924810;29;20478;-58
2023/04/03 02:44:00;;;;;;;3.87;2.10;;;2.00;99.90;;;;;;4936630;29;20499;-60
2023/04/03 02:46:28;;;;;;;4.13;1.80;;;1.90;99.90;;;;;;4936317;29;20494;-59
2023/04/03 02:48:57;;;;;;;4.47;2.60;;;2.00;99.90;;;;;;4936557;29;20548;-60
2023/04/03 02:51:25;;;;;;;5.10;2.90;;;2.20;99.90;;;;;;4937500;29;20484;-57
2023/04/03 02:53:54;;;;;;;7.53;3.60;;;2.10;99.90;;;;;;4944422;29;20532;-59
2023/04/03 02:56:27;;;;;;;6.27;2.90;;;2.10;99.90;;;;;;4937778;29;20482;-58
2023/04/03 02:58:55;;;;;;;6.17;2.60;;;2.40;99.90;;;;;;4921635;29;20478;-60
2023/04/03 03:01:24;;;;;;;6.40;2.43;;;2.40;99.90;;;;;;4927062;29;20476;-58
2023/04/03 03:03:52;;;;;;;6.13;2.40;;;2.50;99.90;;;;;;4919802;29;21021;-59
2023/04/03 03:06:20;;;;;;;5.10;2.70;;;2.40;99.90;;;;;;4918139;29;20478;-59
2023/04/03 03:08:49;;;;;;;5.97;2.87;;;2.10;99.90;;;;;;4950912;29;20490;-59
2023/04/03 03:11:17;;;;;;;7.43;2.57;;;2.20;99.90;;;;;;4936102;29;20479;-59
2023/04/03 03:13:46;;;;;;;5.23;2.70;;;2.30;99.90;;;;;;4937128;29;20556;-60
2023/04/03 03:16:15;;;;;;;6.23;3.00;;;2.40;99.90;;;;;;4937616;29;20463;-60
2023/04/03 03:18:43;;;;;;;4.37;2.50;;;2.20;99.90;;;;;;4937248;29;20955;-59
2023/04/03 03:21:12;;;;;;;5.77;2.70;;;2.40;99.90;;;;;;4935969;29;20470;-60
2023/04/03 03:23:40;;;;;;;8.37;2.93;;;2.40;99.90;;;;;;4935246;29;20483;-60
2023/04/03 03:26:11;;;;;;;7.63;3.27;;;2.30;99.90;;;;;;4930034;29;20466;-60
2023/04/03 03:28:40;;;;;;;7.57;2.80;;;2.20;99.90;;;;;;4936555;29;20466;-59
2023/04/03 03:31:12;;;;;;;6.60;2.20;;;2.30;99.90;;;;;;4940612;29;20568;-59
2023/04/03 03:33:41;;;;;;;5.73;2.90;;;2.20;99.90;;;;;;4918922;29;20858;-59
2023/04/03 03:36:09;;;;;;;7.80;3.17;;;2.30;99.90;;;;;;4917953;29;20461;-59
2023/04/03 03:38:37;;;;;;;5.90;2.57;;;2.20;99.90;;;;;;4917672;29;20503;-59
2023/04/03 03:41:06;;;;;;;3.80;2.27;;;2.20;99.90;;;;;;4916586;29;20476;-60
2023/04/03 03:43:36;;;;;;;4.73;2.23;;;2.20;99.90;;;;;;4916497;29;20475;-60
2023/04/03 03:46:06;;;;;;;5.50;2.40;;;2.40;99.90;;;;;;4916633;29;20486;-59
2023/04/03 03:48:35;;;;;;;5.60;2.93;;;2.40;99.90;;;;;;4916241;29;20531;-59
2023/04/03 03:51:04;;;;;;;7.37;2.80;;;2.30;99.90;;;;;;4917914;29;20467;-60
2023/04/03 03:53:36;;;;;;;8.80;2.63;;;2.20;99.90;;;;;;4926018;29;20503;-60
2023/04/03 03:56:07;;;;;;;7.80;3.30;;;2.10;99.90;;;;;;4943838;29;20986;-60
2023/04/03 03:58:37;;;;;;;5.20;2.70;;;2.30;99.90;;;;;;4935049;29;20997;-59
2023/04/03 04:01:06;;;;;;;5.93;3.03;;;2.10;99.90;;;;;;4937096;29;21024;-59
2023/04/03 04:03:41;;;;;;;7.07;2.83;;;2.10;99.90;;;;;;4947452;29;20488;-60
2023/04/03 04:06:13;;;;;;;9.57;3.30;;;2.00;99.90;;;;;;4951103;29;20836;-59
2023/04/03 04:08:41;;;;;;;8.07;2.90;;;2.00;99.90;;;;;;4923675;29;21083;-60
2023/04/03 04:11:11;;;;;;;5.90;3.13;;;2.40;99.90;;;;;;4916036;29;20480;-60
2023/04/03 04:13:41;;;;;;;4.77;2.80;;;2.10;99.90;;;;;;4915714;29;20838;-58
2023/04/03 04:16:11;;;;;;;7.50;3.57;;;1.90;99.90;;;;;;4915960;29;20479;-59
2023/04/03 04:18:41;;;;;;;4.37;2.70;;;2.10;99.90;;;;;;4915900;29;20831;-60
2023/04/03 04:21:09;;;;;;;6.23;2.90;;;2.00;99.90;;;;;;4915824;29;20469;-59
2023/04/03 04:23:39;;;;;;;6.63;2.97;;;2.10;99.90;;;;;;4919423;29;20483;-59
2023/04/03 04:26:07;;;;;;;8.13;3.40;;;2.20;99.90;;;;;;4923001;29;20563;-59
2023/04/03 04:28:38;;;;;;;7.73;4.10;;;2.30;99.90;;;;;;4915556;29;20511;-60
2023/04/03 04:31:07;;;;;;;5.93;3.40;;;2.00;99.90;;;;;;4934272;29;20835;-60
2023/04/03 04:33:36;;;;;;;6.20;3.80;;;2.20;99.90;;;;;;4934358;29;20501;-59
2023/04/03 04:36:08;;;;;;;6.60;3.97;;;2.10;99.90;;;;;;4931462;29;20487;-59
2023/04/03 04:38:36;;;;;;;6.27;3.47;;;2.20;99.90;;;;;;4931225;29;20477;-60
2023/04/03 04:41:04;;;;;;;7.60;4.03;;;2.10;99.90;;;;;;4917059;29;20468;-60
2023/04/03 04:43:32;;;;;;;5.17;3.63;;;1.90;99.90;;;;;;4930959;29;20471;-60
2023/04/03 04:46:02;;;;;;;7.30;4.40;;;2.10;99.90;;;;;;4915511;29;20983;-59
2023/04/03 04:48:34;;;;;;;6.57;3.80;;;2.00;99.90;;;;;;4915312;29;20477;-60
2023/04/03 04:51:02;;;;;;;8.27;4.10;;;1.90;99.90;;;;;;4915689;29;20522;-60
2023/04/03 04:53:32;;;;;;;7.20;3.60;;;1.90;99.90;;;;;;4917521;29;20491;-60
2023/04/03 04:56:00;;;;;;;10.07;4.20;;;2.10;99.90;;;;;;4934135;29;20551;-60
2023/04/03 04:58:29;;;;;;;8.33;4.10;;;1.80;99.90;;;;;;4933517;29;20486;-59
2023/04/03 05:01:02;;;;;;;8.33;3.73;;;1.80;99.90;;;;;;4929032;29;20557;-59
2023/04/03 05:03:32;;;;;;;6.53;3.50;;;1.90;99.90;;;;;;4921251;29;20556;-59
2023/04/03 05:06:00;;;;;;;9.03;3.30;;;2.00;99.90;;;;;;4925963;29;20894;-59
2023/04/03 05:08:33;;;;;;;5.67;3.70;;;2.00;99.90;;;;;;4945917;29;20478;-59
2023/04/03 05:11:01;;;;;;;4.70;3.30;;;2.20;99.90;;;;;;4950181;29;20475;-60
2023/04/03 05:13:32;;;;;;;9.13;3.57;;;2.20;99.90;;;;;;4931335;29;20580;-59
2023/04/03 05:16:00;;;;;;;5.67;3.40;;;2.10;99.90;;;;;;4935660;29;20480;-59
2023/04/03 05:18:29;;;;;;;6.43;3.87;;;2.20;99.90;;;;;;4935243;29;20467;-59
2023/04/03 05:21:00;;;;;;;7.07;3.43;;;2.10;99.90;;;;;;4935426;29;20493;-59
2023/04/03 05:23:28;;;;;;;7.47;3.60;;;2.10;99.90;;;;;;4923691;29;20511;-59
2023/04/03 05:26:00;;;;;;;7.53;3.40;;;2.00;99.90;;;;;;4932084;29;20483;-59
2023/04/03 05:28:29;;;;;;;7.67;3.20;;;2.10;99.90;;;;;;4918064;29;20478;-60
2023/04/03 05:30:58;;;;;;;7.03;3.30;;;2.20;99.90;;;;;;4936184;29;20481;-59
2023/04/03 05:33:31;;;;;;;6.70;3.57;;;2.30;99.90;;;;;;4937744;29;20489;-59
2023/04/03 05:36:03;;;;;;;6.93;3.63;;;2.30;99.90;;;;;;4937898;29;20461;-59
2023/04/03 05:38:34;;;;;;;6.70;3.33;;;2.30;99.90;;;;;;4937632;29;20537;-58
2023/04/03 05:41:04;;;;;;;9.83;4.50;;;2.40;99.90;;;;;;4938185;29;20455;-59
2023/04/03 05:43:33;;;;;;;7.33;4.00;;;2.50;99.90;;;;;;4926539;29;20567;-59
2023/04/03 05:46:02;;;;;;;7.67;3.37;;;2.60;99.90;;;;;;4929742;29;20566;-59
2023/04/03 05:48:31;;;;;;;7.27;3.17;;;2.70;99.90;;;;;;4927710;29;20875;-59
2023/04/03 05:50:59;;;;;;;5.80;3.20;;;2.90;99.90;;;;;;4928096;29;20525;-58
2023/04/03 05:53:32;;;;;;;5.30;3.40;;;3.10;99.90;;;;;;4927798;29;21034;-59
2023/04/03 05:56:05;;;;;;;9.30;4.17;;;3.10;99.90;;;;;;4936477;29;20844;-59
2023/04/03 05:58:38;;;;;;;6.30;4.00;;;3.00;99.90;;;;;;4930932;29;20574;-59
2023/04/03 06:01:07;;;;;;;6.20;3.27;;;2.90;99.90;;;;;;4943766;29;20475;-59
2023/04/03 06:03:36;;;;;;;6.27;3.10;;;3.00;99.90;;;;;;4934651;29;20990;-59
2023/04/03 06:06:07;;;;;;;6.40;3.60;;;3.00;99.90;;;;;;4953270;29;20828;-59
2023/04/03 06:08:36;;;;;;;8.93;3.83;;;3.00;99.90;;;;;;4938343;29;20470;-60
2023/04/03 06:11:05;;;;;;;7.10;3.70;;;3.00;99.90;;;;;;4938525;29;20468;-59
2023/04/03 06:13:35;;;;;;;9.03;4.23;;;3.10;99.90;;;;;;4926565;29;20588;-59
2023/04/03 06:16:04;;;;;;;5.20;3.73;;;3.30;99.90;;;;;;4917975;29;20507;-60
2023/04/03 06:18:32;;;;;;;7.90;4.17;;;3.40;99.90;;;;;;4919038;29;20472;-59
2023/04/03 06:21:00;;;;;;;6.27;3.60;;;3.40;99.90;;;;;;4919266;29;20958;-59
2023/04/03 06:23:28;;;;;;;5.97;3.53;;;3.50;99.90;;;;;;4919072;29;20470;-59
2023/04/03 06:25:57;;;;;;;5.77;3.20;;;3.60;99.90;;;;;;4921180;29;20491;-59
2023/04/03 06:28:26;;;;;;;5.33;2.87;;;3.70;99.90;;;;;;4938081;29;20886;-59
2023/04/03 06:30:55;;;;;;;7.30;3.50;;;3.90;99.90;;;;;;4927371;29;20988;-59
2023/04/03 06:33:23;;;;;;;6.10;2.77;;;4.20;99.90;;;;;;4932957;29;21037;-58
2023/04/03 06:35:56;;;;;;;7.17;3.33;;;4.50;99.90;;;;;;4938296;29;20970;-59
2023/04/03 06:38:24;;;;;;;6.43;3.00;;;4.70;99.90;;;;;;4919577;29;20971;-58
2023/04/03 06:40:53;;;;;;;4.97;2.80;;;4.90;99.90;;;;;;4936743;29;20499;-60
2023/04/03 06:43:21;;;;;;;8.43;2.60;;;5.00;99.90;;;;;;4937827;29;20971;-59
2023/04/03 06:45:55;;;;;;;6.07;3.10;;;5.10;99.90;;;;;;4937735;29;20479;-59
2023/04/03 06:48:24;;;;;;;7.63;2.40;;;5.20;99.90;;;;;;4937809;29;20573;-60
2023/04/03 06:50:52;;;;;;;4.77;3.03;;;5.40;99.90;;;;;;4938017;29;20829;-59
2023/04/03 06:53:20;;;;;;;4.97;2.87;;;5.40;99.90;;;;;;4937953;29;20487;-59
2023/04/03 06:55:48;;;;;;;3.30;2.40;;;5.70;99.90;;;;;;4936087;29;20478;-60
2023/04/03 06:58:17;;;;;;;5.77;2.23;;;5.90;99.90;;;;;;4937284;29;20476;-59
2023/04/03 07:00:47;;;;;;;6.00;2.63;;;6.00;99.90;;;;;;4936979;29;20250;-60
2023/04/03 07:03:16;;;;;;;5.37;2.17;;;6.10;99.90;;;;;;4924647;29;20487;-60
2023/04/03 07:05:45;;;;;;;4.90;2.60;;;6.20;99.90;;;;;;4918309;29;20313;-59
2023/04/03 07:08:13;;;;;;;5.23;2.33;;;6.30;99.90;;;;;;4918537;29;20539;-60
2023/04/03 07:10:41;;;;;;;5.67;2.10;;;6.30;99.90;;;;;;4933750;29;20280;-59
2023/04/03 07:13:09;;;;;;;4.43;1.90;;;6.50;99.90;;;;;;4926421;29;20628;-60
2023/04/03 07:15:37;;;;;;;5.23;2.10;;;6.70;99.90;;;;;;4918302;29;20707;-60
2023/04/03 07:18:06;;;;;;;5.93;2.50;;;6.80;99.90;;;;;;4918580;29;20312;-60
2023/04/03 07:20:36;;;;;;;6.13;2.27;;;7.00;99.90;;;;;;4919124;29;20314;-60
2023/04/03 07:23:04;;;;;;;4.00;1.93;;;7.10;99.90;;;;;;4919571;29;20335;-60
2023/04/03 07:25:33;;;;;;;5.80;2.00;;;7.20;99.90;;;;;;4917919;29;20229;-60
2023/04/03 07:28:01;;;;;;;4.17;2.10;;;7.30;99.90;;;;;;4918369;29;20271;-59
2023/04/03 07:30:29;;;;;;;6.73;2.00;;;7.40;99.90;;;;;;4930008;29;20220;-59
2023/04/03 07:32:57;;;;;;;4.80;1.90;;;7.60;99.90;;;;;;4930668;29;20228;-59
2023/04/03 07:35:26;;;;;;;5.33;1.80;;;7.70;99.90;;;;;;4935648;29;20228;-59
2023/04/03 07:37:55;;;;;;;3.23;1.40;;;7.90;99.90;;;;;;4937161;29;20623;-59
2023/04/03 07:40:23;;;;;;;4.73;1.60;;;8.00;99.90;;;;;;4935322;29;20254;-58
2023/04/03 07:42:52;;;;;;;5.77;1.60;;;8.10;99.90;;;;;;4927099;29;20228;-59
2023/04/03 07:45:20;;;;;;;2.93;1.30;;;8.10;99.90;;;;;;4918060;29;20264;-59
2023/04/03 07:47:48;;;;;;;3.43;1.40;;;8.20;99.90;;;;;;4919880;29;20232;-59
2023/04/03 07:50:17;;;;;;;4.63;1.43;;;8.40;99.90;;;;;;4918770;29;20247;-60
2023/04/03 07:52:45;;;;;;;4.40;1.50;;;8.50;99.90;;;;;;4917443;29;20714;-59
2023/04/03 07:55:15;;;;;;;5.40;1.50;;;8.30;99.90;;;;;;4917493;29;20240;-60
2023/04/03 07:57:43;;;;;;;4.57;1.20;;;8.40;99.90;;;;;;4917411;29;20239;-59
2023/04/03 08:00:13;;;;;;;3.53;1.43;;;8.60;99.90;;;;;;4933747;29;20252;-59
2023/04/03 08:02:41;;;;;;;4.40;1.20;;;8.80;99.90;;;;;;4929666;29;20324;-59
2023/04/03 08:05:10;;;;;;;5.20;1.80;;;9.00;99.90;;;;;;4925890;29;20562;-60
2023/04/03 08:07:38;;;;;;;4.47;1.83;;;9.30;99.90;;;;;;4926057;29;20220;-59
2023/04/03 08:10:08;;;;;;;3.17;1.43;;;9.40;99.90;;;;;;4926940;29;20236;-60
2023/04/03 08:12:38;;;;;;;3.27;1.47;;;9.60;99.90;;;;;;4927091;29;20220;-60
2023/04/03 08:15:08;;;;;;;3.77;1.20;;;9.40;99.90;;;;;;4920395;29;20852;-60
2023/04/03 08:17:36;;;;;;;5.23;1.40;;;9.20;99.90;;;;;;4916400;29;20699;-59
2023/04/03 08:20:06;;;;;;;2.30;1.10;;;9.30;99.90;;;;;;4913658;29;20259;-59
2023/04/03 08:22:34;;;;;;;2.83;1.23;;;9.50;99.90;;;;;;4912221;29;20234;-59
2023/04/03 08:25:02;;;;;;;2.73;1.20;;;9.60;99.90;;;;;;4912335;29;20306;-59
2023/04/03 08:27:31;;;;;;;3.13;1.10;;;9.50;99.90;;;;;;4915719;29;20240;-58
2023/04/03 08:30:03;;;;;;;3.40;1.00;;;9.60;99.90;;;;;;4915205;29;20578;-60
2023/04/03 08:32:32;;;;;;;3.17;1.07;;;9.70;99.90;;;;;;4911794;29;20255;-58
2023/04/03 08:35:00;;;;;;;3.30;1.20;;;10.00;99.90;;;;;;4913582;29;20296;-58
2023/04/03 08:37:28;;;;;;;4.10;1.07;;;10.30;99.90;;;;;;4913706;29;20241;-56
2023/04/03 08:39:56;;;;;;;2.90;1.00;;;10.40;99.90;;;;;;4912828;29;20249;-59
2023/04/03 08:42:41;;;;;;;4.10;1.00;;;10.50;99.90;;;;;;4914535;29;20236;-60
2023/04/03 08:45:14;;;;;;;3.73;1.20;;;10.80;99.90;;;;;;4914689;29;20786;-58
2023/04/03 08:47:47;;;;;;;3.40;1.10;;;10.90;99.90;;;;;;4912986;29;20740;-59
2023/04/03 08:50:19;;;;;;;3.00;1.17;;;10.90;99.90;;;;;;4915232;29;20245;-59
2023/04/03 08:52:51;;;;;;;1.90;1.00;;;10.90;99.90;;;;;;4913745;29;20236;-58
2023/04/03 08:55:25;;;;;;;3.63;0.90;;;11.00;99.90;;;;;;4912359;29;20241;-59
2023/04/03 08:58:00;;;;;;;2.17;0.80;;;11.10;99.90;;;;;;4913506;29;20225;-60
2023/04/03 09:00:35;;;;;;;2.33;0.87;;;11.00;99.90;;;;;;4912755;29;20236;-59
2023/04/03 09:03:03;;;;;;;3.87;0.97;;;10.80;99.90;;;;;;4914006;29;20245;-59
2023/04/03 09:05:42;;;;;;;2.57;0.90;;;11.00;99.90;;;;;;4911221;29;20235;-60
2023/04/03 09:08:22;;;;;;;3.27;0.90;;;11.30;99.90;;;;;;4915136;29;20243;-56
2023/04/03 09:10:53;;;;;;;2.10;1.00;;;11.80;99.90;;;;;;4914899;29;20228;-59
2023/04/03 09:13:28;;;;;;;4.00;0.90;;;11.70;99.90;;;;;;4916640;29;20697;-59
2023/04/03 09:15:58;;;;;;;2.17;0.80;;;11.30;99.90;;;;;;4911645;29;20247;-59
2023/04/03 09:18:31;;;;;;;1.90;1.17;;;11.40;99.90;;;;;;4913786;29;20568;-59
2023/04/03 09:21:08;;;;;;;2.20;0.80;;;11.40;99.90;;;;;;4922006;29;20294;-60
2023/04/03 09:23:43;;;;;;;2.43;0.80;;;11.70;99.90;;;;;;4927222;29;20233;-61
2023/04/03 09:26:17;;;;;;;3.13;1.00;;;11.80;99.90;;;;;;4918795;29;20231;-60
2023/04/03 09:28:46;;;;;;;2.10;0.63;;;11.90;99.90;;;;;;4929521;29;20231;-60
2023/04/03 09:31:23;;;;;;;1.73;0.87;;;12.30;99.90;;;;;;4921761;29;20753;-60
2023/04/03 09:33:54;;;;;;;3.63;1.10;;;12.20;99.90;;;;;;4931531;29;20230;-60
2023/04/03 09:36:42;;;;;;;3.33;0.90;;;12.60;99.90;;;;;;4924216;29;20245;-58
2023/04/03 09:39:15;;;;;;;2.90;1.17;;;13.10;99.90;;;;;;4916183;29;20247;-60
2023/04/03 09:41:57;;;;;;;2.93;1.07;;;13.10;99.90;;;;;;4919524;29;20234;-60
2023/04/03 09:44:27;;;;;;;2.73;1.10;;;12.80;99.90;;;;;;4916042;29;20699;-59
2023/04/03 09:46:57;;;;;;;2.60;0.90;;;12.50;99.90;;;;;;4935144;29;20241;-60
2023/04/03 09:49:25;;;;;;;2.17;0.70;;;12.50;99.90;;;;;;4934995;29;20323;-60
2023/04/03 09:51:53;;;;;;;3.37;1.00;;;12.70;99.90;;;;;;4935127;29;20243;-60
2023/04/03 09:54:39;;;;;;;2.53;1.00;;;13.00;99.90;;;;;;4929234;29;20240;-60
2023/04/03 09:57:11;;;;;;;1.57;0.83;;;13.30;99.90;;;;;;4925303;29;20680;-60
2023/04/03 09:59:46;;;;;;;1.90;0.63;;;13.50;99.90;;;;;;4926927;29;20224;-60
2023/04/03 10:02:38;;;;;;;2.53;0.90;;;13.40;99.90;;;;;;4920597;29;20714;-60
2023/04/03 10:05:26;;;;;;;1.70;0.90;;;13.50;99.90;;;;;;4934412;29;20237;-60
2023/04/03 10:08:09;;;;;;;3.03;0.80;;;13.40;99.90;;;;;;4935009;29;20243;-61
2023/04/03 10:10:38;;;;;;;1.57;0.83;;;13.50;99.90;;;;;;4931671;29;20565;-60
2023/04/03 10:13:09;;;;;;;2.77;1.30;;;13.80;99.90;;;;;;4926140;29;20696;-61
2023/04/03 10:15:44;;;;;;;1.73;0.73;;;13.50;99.90;;;;;;4935606;29;20574;-60
2023/04/03 10:18:30;;;;;;;2.30;0.90;;;13.40;99.90;;;;;;4937406;29;20324;-61
2023/04/03 10:21:06;;;;;;;2.70;1.00;;;13.50;99.90;;;;;;4920410;29;20684;-60
2023/04/03 10:23:49;;;;;;;2.20;0.97;;;13.30;99.90;;;;;;4931956;29;20231;-60
2023/04/03 10:26:33;;;;;;;2.67;1.00;;;12.70;99.90;;;;;;4923231;29;20592;-60
2023/04/03 10:29:09;;;;;;;2.73;1.00;;;12.40;99.90;;;;;;4914958;29;20869;-60
2023/04/03 10:31:41;;;;;;;2.73;0.90;;;12.70;99.90;;;;;;4915832;29;20710;-60
2023/04/03 10:34:19;;;;;;;2.53;0.93;;;13.60;99.90;;;;;;4915313;29;20225;-59
2023/04/03 10:36:56;;;;;;;2.97;1.10;;;13.90;99.90;;;;;;4918326;29;20239;-59
2023/04/03 10:39:34;;;;;;;1.90;1.00;;;13.80;99.80;;;;;;4918657;29;20238;-58
2023/04/03 10:42:09;;;;;;;1.97;1.10;;;13.80;99.40;;;;;;4916788;29;20236;-59
2023/04/03 10:44:59;;;;;;;3.03;0.80;;;13.10;98.70;;;;;;4915476;29;20241;-58
2023/04/03 10:47:35;;;;;;;2.93;1.07;;;13.70;99.90;;;;;;4916649;29;20654;-60
2023/04/03 10:50:30;;;;;;;3.13;1.23;;;14.00;99.90;;;;;;4916191;29;20713;-60
2023/04/03 10:53:04;;;;;;;2.10;0.90;;;13.70;99.90;;;;;;4914524;29;20695;-59
2023/04/03 10:55:39;;;;;;;3.20;1.00;;;13.80;99.90;;;;;;4916165;29;20228;-59
2023/04/03 10:58:19;;;;;;;2.03;0.80;;;13.50;99.50;;;;;;4915923;29;20221;-60
2023/04/03 11:00:51;;;;;;;3.63;0.90;;;13.00;98.50;;;;;;4916583;29;20310;-59
2023/04/03 11:03:30;;;;;;;2.83;1.00;;;13.20;98.90;;;;;;4916215;29;20267;-59
2023/04/03 11:06:02;;;;;;;2.37;1.00;;;13.40;99.20;;;;;;4916946;29;20862;-60
2023/04/03 11:08:37;;;;;;;1.67;0.80;;;13.50;99.90;;;;;;4917025;29;20240;-58
2023/04/03 11:11:09;;;;;;;3.50;1.10;;;13.40;98.70;;;;;;4915600;29;20258;-60
2023/04/03 11:13:43;;;;;;;2.17;1.10;;;12.90;98.50;;;;;;4915612;29;20240;-60
2023/04/03 11:16:16;;;;;;;3.47;1.07;;;13.30;99.90;;;;;;4915433;29;20836;-60
2023/04/03 11:18:49;;;;;;;3.90;1.10;;;13.60;99.80;;;;;;4917984;29;21005;-58
2023/04/03 11:21:24;;;;;;;1.50;0.80;;;13.90;97.70;;;;;;4916430;29;20704;-59
2023/04/03 11:23:54;;;;;;;3.53;1.03;;;14.10;99.60;;;;;;4913356;29;20244;-59
2023/04/03 11:26:26;;;;;;;3.63;0.97;;;13.70;98.10;;;;;;4914951;29;20236;-56
2023/04/03 11:28:57;;;;;;;3.03;1.10;;;12.90;98.60;;;;;;4914396;29;20779;-56
2023/04/03 11:31:48;;;;;;;2.13;0.80;;;12.60;98.40;;;;;;4913762;29;20243;-59
2023/04/03 11:34:34;;;;;;;2.77;0.97;;;13.00;99.90;;;;;;4915345;29;20790;-58
2023/04/03 11:37:08;;;;;;;2.23;0.90;;;13.10;99.80;;;;;;4915016;29;20239;-60
2023/04/03 11:39:38;;;;;;;1.93;0.90;;;13.40;98.40;;;;;;4912257;29;20236;-59
2023/04/03 11:42:27;;;;;;;2.50;1.20;;;13.60;99.70;;;;;;4910406;29;20229;-60
2023/04/03 11:45:18;;;;;;;2.47;0.80;;;12.90;99.50;;;;;;4912987;29;20619;-59
2023/04/03 11:47:48;;;;;;;2.90;1.00;;;12.90;99.60;;;;;;4913406;29;20251;-60
2023/04/03 11:50:43;;;;;;;2.97;1.10;;;12.40;99.10;;;;;;4914890;29;20702;-60
2023/04/03 11:53:34;;;;;;;1.93;0.83;;;11.90;99.90;;;;;;4914740;29;20727;-55
2023/04/03 11:56:04;;;;;;;2.10;0.90;;;12.10;99.90;;;;;;4913721;29;20600;-59
2023/04/03 11:58:33;;;;;;;2.43;1.30;;;11.70;99.90;;;;;;4916811;29;20247;-60
2023/04/03 12:01:05;;;;;;;3.10;1.30;;;11.20;99.90;;;;;;4915472;29;20247;-57
2023/04/03 12:04:07;;;;;;;1.97;0.90;;;11.00;99.90;;;;;;4910328;29;20834;-57
2023/04/03 12:07:01;;;;;;;2.17;1.17;;;10.60;99.90;;;;;;4917559;29;20228;-59
2023/04/03 12:09:58;;;;;;;3.67;1.00;;;10.40;99.90;;;;;;4913023;29;20254;-58
2023/04/03 12:12:35;;;;;;;2.83;1.00;;;10.40;99.90;;;;;;4907226;29;20247;-60
2023/04/03 12:15:26;;;;;;;3.10;1.40;;;10.40;99.90;;;;;;4912989;29;20238;-57
2023/04/03 12:17:54;;;;;;;1.80;0.90;;;10.50;99.90;;;;;;4911397;29;21062;-57
2023/04/03 12:20:48;;;;;;;2.67;1.10;;;10.30;99.90;;;;;;4912815;29;20232;-58
2023/04/03 12:23:31;;;;;;;2.30;1.00;;;10.50;99.90;;;;;;4921408;29;20714;-59
2023/04/03 12:26:19;;;;;;;3.33;1.10;;;10.70;99.90;;;;;;4925040;29;20583;-63
2023/04/03 12:28:49;;;;;;;3.60;1.37;;;10.40;99.90;;;;;;4927580;29;20250;-62
2023/04/03 12:31:17;;;;;;;2.97;1.23;;;10.40;99.90;;;;;;4924229;29;20366;-63
2023/04/03 12:34:05;;;;;;;2.60;1.00;;;10.20;99.90;;;;;;4922138;29;20325;-63
2023/04/03 12:36:44;;;;;;;4.17;0.90;;;10.10;99.90;;;;;;4917630;29;20234;-63
2023/04/03 12:39:24;;;;;;;2.97;1.20;;;10.40;99.90;;;;;;4916003;29;20223;-63
2023/04/03 12:42:02;;;;;;;2.37;1.03;;;10.90;99.90;;;;;;4917168;29;20695;-63
2023/04/03 12:44:45;;;;;;;2.53;1.00;;;11.10;99.90;;;;;;4920281;29;20641;-63
2023/04/03 12:47:35;;;;;;;3.23;1.20;;;11.20;99.90;;;;;;4936043;29;20233;-63
2023/04/03 12:50:05;;;;;;;3.33;1.00;;;11.20;99.90;;;;;;4935429;29;20324;-63
2023/04/03 12:52:38;;;;;;;2.27;1.27;;;11.30;99.90;;;;;;4935444;29;20230;-62
2023/04/03 12:55:15;;;;;;;2.60;1.03;;;11.00;99.90;;;;;;4935687;29;20262;-62
2023/04/03 12:57:45;;;;;;;2.03;0.90;;;10.70;99.90;;;;;;4934555;29;20812;-62
2023/04/03 13:00:28;;;;;;;3.07;1.20;;;10.70;99.90;;;;;;4927571;29;20239;-62
2023/04/03 13:02:57;;;;;;;4.07;1.20;;;10.50;99.90;;;;;;4926689;29;20247;-62
2023/04/03 13:05:26;;;;;;;1.80;0.90;;;10.20;99.90;;;;;;4935208;29;20589;-61
2023/04/03 13:07:59;;;;;;;3.90;1.30;;;10.20;99.90;;;;;;4935737;29;20242;-62
2023/04/03 13:10:27;;;;;;;2.37;0.90;;;10.50;99.90;;;;;;4935499;29;20231;-62
2023/04/03 13:12:59;;;;;;;2.77;1.00;;;10.40;99.90;;;;;;4927943;29;20712;-62
2023/04/03 13:15:31;;;;;;;2.73;1.00;;;10.20;99.90;;;;;;4924405;29;21027;-62
2023/04/03 13:17:59;;;;;;;3.07;0.97;;;10.00;99.90;;;;;;4925867;29;20655;-62